sensor_id;sensor_type;location;lat;lon;timestamp;P1;durP1;ratioP1;P2;durP2;ratioP2
70148;SDS011;57514;52.164;5.282;2023-07-24T00:00:23;7.90;;;3.63;;
70148;SDS011;57514;52.164;5.282;2023-07-24T00:02:50;8.32;;;3.65;;
70148;SDS011;57514;52.164;5.282;2023-07-24T00:05:17;8.63;;;4.15;;
70148;SDS011;57514;52.164;5.282;2023-07-24T00:07:45;8.40;;;3.45;;
70148;SDS011;57514;52.164;5.282;2023-07-24T00:10:26;7.30;;;3.22;;
70148;SDS011;57514;52.164;5.282;2023-07-24T00:18:37;7.82;;;3.70;;
70148;SDS011;57514;52.164;5.282;2023-07-24T00:21:04;6.32;;;2.78;;
70148;SDS011;57514;52.164;5.282;2023-07-24T00:23:31;7.65;;;3.20;;
70148;SDS011;57514;52.164;5.282;2023-07-24T00:25:59;10.15;;;4.10;;
70148;SDS011;57514;52.164;5.282;2023-07-24T00:28:48;9.48;;;3.58;;
70148;SDS011;57514;52.164;5.282;2023-07-24T00:31:15;9.57;;;3.83;;
70148;SDS011;57514;52.164;5.282;2023-07-24T00:33:43;8.57;;;3.75;;
70148;SDS011;57514;52.164;5.282;2023-07-24T00:36:13;9.07;;;3.65;;
70148;SDS011;57514;52.164;5.282;2023-07-24T00:38:41;8.70;;;4.07;;
70148;SDS011;57514;52.164;5.282;2023-07-24T00:41:08;7.15;;;2.88;;
70148;SDS011;57514;52.164;5.282;2023-07-24T00:43:35;8.07;;;3.72;;
70148;SDS011;57514;52.164;5.282;2023-07-24T00:48:33;8.70;;;4.55;;
70148;SDS011;57514;52.164;5.282;2023-07-24T00:51:06;6.82;;;3.65;;
70148;SDS011;57514;52.164;5.282;2023-07-24T00:53:34;7.93;;;3.30;;
70148;SDS011;57514;52.164;5.282;2023-07-24T00:56:02;9.98;;;3.72;;
70148;SDS011;57514;52.164;5.282;2023-07-24T00:58:30;8.85;;;3.28;;
70148;SDS011;57514;52.164;5.282;2023-07-24T01:00:57;8.98;;;4.13;;
70148;SDS011;57514;52.164;5.282;2023-07-24T01:03:27;8.70;;;4.13;;
70148;SDS011;57514;52.164;5.282;2023-07-24T01:06:01;8.80;;;4.07;;
70148;SDS011;57514;52.164;5.282;2023-07-24T01:08:28;9.13;;;4.60;;
70148;SDS011;57514;52.164;5.282;2023-07-24T01:10:57;8.50;;;4.03;;
70148;SDS011;57514;52.164;5.282;2023-07-24T01:13:29;7.30;;;3.20;;
70148;SDS011;57514;52.164;5.282;2023-07-24T01:16:09;9.65;;;4.65;;
70148;SDS011;57514;52.164;5.282;2023-07-24T01:18:39;8.20;;;4.13;;
70148;SDS011;57514;52.164;5.282;2023-07-24T01:21:08;9.75;;;3.88;;
70148;SDS011;57514;52.164;5.282;2023-07-24T01:23:38;8.38;;;3.50;;
70148;SDS011;57514;52.164;5.282;2023-07-24T01:26:19;8.98;;;4.10;;
70148;SDS011;57514;52.164;5.282;2023-07-24T01:28:47;9.20;;;3.97;;
70148;SDS011;57514;52.164;5.282;2023-07-24T01:31:14;9.07;;;3.97;;
70148;SDS011;57514;52.164;5.282;2023-07-24T01:33:43;7.80;;;3.33;;
70148;SDS011;57514;52.164;5.282;2023-07-24T01:36:10;9.60;;;4.10;;
70148;SDS011;57514;52.164;5.282;2023-07-24T01:38:40;8.77;;;4.40;;
70148;SDS011;57514;52.164;5.282;2023-07-24T01:41:08;9.48;;;3.55;;
70148;SDS011;57514;52.164;5.282;2023-07-24T01:43:36;9.65;;;3.58;;
70148;SDS011;57514;52.164;5.282;2023-07-24T01:46:03;7.55;;;3.92;;
70148;SDS011;57514;52.164;5.282;2023-07-24T01:48:31;9.07;;;4.15;;
70148;SDS011;57514;52.164;5.282;2023-07-24T01:50:58;9.52;;;4.10;;
70148;SDS011;57514;52.164;5.282;2023-07-24T01:53:25;10.13;;;4.63;;
70148;SDS011;57514;52.164;5.282;2023-07-24T01:55:52;11.43;;;4.15;;
70148;SDS011;57514;52.164;5.282;2023-07-24T01:58:20;9.50;;;3.88;;
70148;SDS011;57514;52.164;5.282;2023-07-24T02:00:50;8.52;;;4.22;;
70148;SDS011;57514;52.164;5.282;2023-07-24T02:03:17;8.13;;;3.72;;
70148;SDS011;57514;52.164;5.282;2023-07-24T02:05:48;8.85;;;3.78;;
70148;SDS011;57514;52.164;5.282;2023-07-24T02:08:16;9.05;;;3.67;;
70148;SDS011;57514;52.164;5.282;2023-07-24T02:10:47;9.02;;;3.78;;
70148;SDS011;57514;52.164;5.282;2023-07-24T02:13:15;8.30;;;3.63;;
70148;SDS011;57514;52.164;5.282;2023-07-24T02:15:47;8.30;;;3.10;;
70148;SDS011;57514;52.164;5.282;2023-07-24T02:18:14;8.32;;;3.67;;
70148;SDS011;57514;52.164;5.282;2023-07-24T02:20:47;9.68;;;3.97;;
70148;SDS011;57514;52.164;5.282;2023-07-24T02:23:17;7.45;;;3.60;;
70148;SDS011;57514;52.164;5.282;2023-07-24T02:25:45;7.80;;;3.65;;
70148;SDS011;57514;52.164;5.282;2023-07-24T02:28:12;7.47;;;3.60;;
70148;SDS011;57514;52.164;5.282;2023-07-24T02:30:40;9.43;;;3.95;;
70148;SDS011;57514;52.164;5.282;2023-07-24T02:33:07;8.43;;;3.80;;
70148;SDS011;57514;52.164;5.282;2023-07-24T02:35:40;8.52;;;3.55;;
70148;SDS011;57514;52.164;5.282;2023-07-24T02:38:08;8.30;;;3.50;;
70148;SDS011;57514;52.164;5.282;2023-07-24T02:40:37;7.88;;;3.85;;
70148;SDS011;57514;52.164;5.282;2023-07-24T02:43:07;7.80;;;3.63;;
70148;SDS011;57514;52.164;5.282;2023-07-24T02:45:35;8.27;;;3.67;;
70148;SDS011;57514;52.164;5.282;2023-07-24T02:48:04;8.20;;;3.13;;
70148;SDS011;57514;52.164;5.282;2023-07-24T02:50:32;8.77;;;2.97;;
70148;SDS011;57514;52.164;5.282;2023-07-24T02:53:00;7.65;;;2.92;;
70148;SDS011;57514;52.164;5.282;2023-07-24T02:55:27;9.02;;;3.38;;
70148;SDS011;57514;52.164;5.282;2023-07-24T02:57:54;8.13;;;3.10;;
70148;SDS011;57514;52.164;5.282;2023-07-24T03:00:23;8.65;;;3.80;;
70148;SDS011;57514;52.164;5.282;2023-07-24T03:02:50;11.18;;;4.07;;
70148;SDS011;57514;52.164;5.282;2023-07-24T03:05:18;9.13;;;3.40;;
70148;SDS011;57514;52.164;5.282;2023-07-24T03:07:45;9.02;;;3.60;;
70148;SDS011;57514;52.164;5.282;2023-07-24T03:10:12;8.07;;;3.60;;
70148;SDS011;57514;52.164;5.282;2023-07-24T03:12:39;9.52;;;4.20;;
70148;SDS011;57514;52.164;5.282;2023-07-24T03:15:07;8.27;;;4.03;;
70148;SDS011;57514;52.164;5.282;2023-07-24T03:17:34;9.05;;;3.70;;
70148;SDS011;57514;52.164;5.282;2023-07-24T03:22:41;9.77;;;4.22;;
70148;SDS011;57514;52.164;5.282;2023-07-24T03:25:09;8.70;;;3.47;;
70148;SDS011;57514;52.164;5.282;2023-07-24T03:27:36;8.63;;;3.65;;
70148;SDS011;57514;52.164;5.282;2023-07-24T03:30:04;10.88;;;3.80;;
70148;SDS011;57514;52.164;5.282;2023-07-24T03:32:31;11.27;;;4.28;;
70148;SDS011;57514;52.164;5.282;2023-07-24T03:34:58;9.68;;;4.07;;
70148;SDS011;57514;52.164;5.282;2023-07-24T03:37:26;8.77;;;3.72;;
70148;SDS011;57514;52.164;5.282;2023-07-24T03:39:53;9.00;;;3.90;;
70148;SDS011;57514;52.164;5.282;2023-07-24T03:42:24;9.32;;;4.60;;
70148;SDS011;57514;52.164;5.282;2023-07-24T03:44:53;8.98;;;3.90;;
70148;SDS011;57514;52.164;5.282;2023-07-24T03:47:20;9.68;;;4.25;;
70148;SDS011;57514;52.164;5.282;2023-07-24T03:50:04;11.95;;;4.88;;
70148;SDS011;57514;52.164;5.282;2023-07-24T03:52:31;10.82;;;4.50;;
70148;SDS011;57514;52.164;5.282;2023-07-24T03:54:58;12.05;;;5.20;;
70148;SDS011;57514;52.164;5.282;2023-07-24T03:57:26;11.02;;;4.10;;
70148;SDS011;57514;52.164;5.282;2023-07-24T03:59:53;13.10;;;4.70;;
70148;SDS011;57514;52.164;5.282;2023-07-24T04:02:20;9.68;;;4.20;;
70148;SDS011;57514;52.164;5.282;2023-07-24T04:04:48;11.35;;;4.72;;
70148;SDS011;57514;52.164;5.282;2023-07-24T04:07:15;10.98;;;4.85;;
70148;SDS011;57514;52.164;5.282;2023-07-24T04:09:42;11.25;;;5.28;;
70148;SDS011;57514;52.164;5.282;2023-07-24T04:12:09;10.32;;;4.72;;
70148;SDS011;57514;52.164;5.282;2023-07-24T04:14:37;12.30;;;4.95;;
70148;SDS011;57514;52.164;5.282;2023-07-24T04:17:04;12.10;;;5.03;;
70148;SDS011;57514;52.164;5.282;2023-07-24T04:19:33;11.88;;;5.03;;
70148;SDS011;57514;52.164;5.282;2023-07-24T04:22:00;10.45;;;4.97;;
70148;SDS011;57514;52.164;5.282;2023-07-24T04:24:27;12.15;;;5.30;;
70148;SDS011;57514;52.164;5.282;2023-07-24T04:26:55;11.32;;;4.93;;
70148;SDS011;57514;52.164;5.282;2023-07-24T04:29:25;11.73;;;5.28;;
70148;SDS011;57514;52.164;5.282;2023-07-24T04:31:52;10.55;;;4.95;;
70148;SDS011;57514;52.164;5.282;2023-07-24T04:34:20;13.25;;;5.70;;
70148;SDS011;57514;52.164;5.282;2023-07-24T04:36:47;12.48;;;5.00;;
70148;SDS011;57514;52.164;5.282;2023-07-24T04:39:14;12.68;;;5.45;;
70148;SDS011;57514;52.164;5.282;2023-07-24T04:41:41;11.45;;;4.82;;
70148;SDS011;57514;52.164;5.282;2023-07-24T04:44:09;12.63;;;5.45;;
70148;SDS011;57514;52.164;5.282;2023-07-24T04:46:36;11.43;;;5.07;;
70148;SDS011;57514;52.164;5.282;2023-07-24T04:49:03;11.98;;;5.20;;
70148;SDS011;57514;52.164;5.282;2023-07-24T04:51:31;11.80;;;5.80;;
70148;SDS011;57514;52.164;5.282;2023-07-24T04:54:02;11.90;;;4.90;;
70148;SDS011;57514;52.164;5.282;2023-07-24T04:56:29;12.98;;;4.85;;
70148;SDS011;57514;52.164;5.282;2023-07-24T04:59:00;12.93;;;5.30;;
70148;SDS011;57514;52.164;5.282;2023-07-24T05:03:54;12.48;;;5.25;;
70148;SDS011;57514;52.164;5.282;2023-07-24T05:06:21;13.10;;;4.70;;
70148;SDS011;57514;52.164;5.282;2023-07-24T05:08:49;12.38;;;4.88;;
70148;SDS011;57514;52.164;5.282;2023-07-24T05:11:17;13.40;;;5.35;;
70148;SDS011;57514;52.164;5.282;2023-07-24T05:13:44;13.88;;;5.63;;
70148;SDS011;57514;52.164;5.282;2023-07-24T05:16:11;12.90;;;4.90;;
70148;SDS011;57514;52.164;5.282;2023-07-24T05:18:38;12.57;;;5.22;;
70148;SDS011;57514;52.164;5.282;2023-07-24T05:21:06;13.55;;;5.60;;
70148;SDS011;57514;52.164;5.282;2023-07-24T05:23:33;14.75;;;5.75;;
70148;SDS011;57514;52.164;5.282;2023-07-24T05:26:01;13.35;;;5.30;;
70148;SDS011;57514;52.164;5.282;2023-07-24T05:28:30;11.43;;;5.05;;
70148;SDS011;57514;52.164;5.282;2023-07-24T05:31:01;14.45;;;5.63;;
70148;SDS011;57514;52.164;5.282;2023-07-24T05:33:30;12.18;;;4.60;;
70148;SDS011;57514;52.164;5.282;2023-07-24T05:35:58;12.75;;;5.40;;
70148;SDS011;57514;52.164;5.282;2023-07-24T05:38:29;11.95;;;5.75;;
70148;SDS011;57514;52.164;5.282;2023-07-24T05:40:57;11.52;;;5.40;;
70148;SDS011;57514;52.164;5.282;2023-07-24T05:43:25;11.57;;;4.35;;
70148;SDS011;57514;52.164;5.282;2023-07-24T05:49:16;15.73;;;4.53;;
70148;SDS011;57514;52.164;5.282;2023-07-24T05:51:44;10.82;;;4.55;;
70148;SDS011;57514;52.164;5.282;2023-07-24T05:54:11;13.75;;;4.82;;
70148;SDS011;57514;52.164;5.282;2023-07-24T05:56:38;17.48;;;4.95;;
70148;SDS011;57514;52.164;5.282;2023-07-24T05:59:06;12.40;;;4.53;;
70148;SDS011;57514;52.164;5.282;2023-07-24T06:01:33;13.05;;;4.53;;
70148;SDS011;57514;52.164;5.282;2023-07-24T06:04:04;11.80;;;4.38;;
70148;SDS011;57514;52.164;5.282;2023-07-24T06:09:02;12.05;;;4.50;;
70148;SDS011;57514;52.164;5.282;2023-07-24T06:11:30;10.95;;;4.10;;
70148;SDS011;57514;52.164;5.282;2023-07-24T06:13:57;14.77;;;4.45;;
70148;SDS011;57514;52.164;5.282;2023-07-24T06:16:24;11.77;;;3.90;;
70148;SDS011;57514;52.164;5.282;2023-07-24T06:18:54;11.82;;;4.15;;
70148;SDS011;57514;52.164;5.282;2023-07-24T06:21:21;9.75;;;3.40;;
70148;SDS011;57514;52.164;5.282;2023-07-24T06:23:48;9.15;;;3.22;;
70148;SDS011;57514;52.164;5.282;2023-07-24T06:26:16;9.60;;;3.70;;
70148;SDS011;57514;52.164;5.282;2023-07-24T06:28:43;9.48;;;3.83;;
70148;SDS011;57514;52.164;5.282;2023-07-24T06:31:10;10.43;;;3.90;;
70148;SDS011;57514;52.164;5.282;2023-07-24T06:33:37;9.63;;;3.70;;
70148;SDS011;57514;52.164;5.282;2023-07-24T06:36:08;10.48;;;4.35;;
70148;SDS011;57514;52.164;5.282;2023-07-24T06:38:36;9.52;;;4.20;;
70148;SDS011;57514;52.164;5.282;2023-07-24T06:41:03;9.88;;;3.53;;
70148;SDS011;57514;52.164;5.282;2023-07-24T06:43:31;12.00;;;3.40;;
70148;SDS011;57514;52.164;5.282;2023-07-24T06:45:58;9.63;;;3.50;;
70148;SDS011;57514;52.164;5.282;2023-07-24T06:48:25;8.82;;;3.50;;
70148;SDS011;57514;52.164;5.282;2023-07-24T06:50:52;8.60;;;3.63;;
70148;SDS011;57514;52.164;5.282;2023-07-24T06:53:19;10.57;;;3.35;;
70148;SDS011;57514;52.164;5.282;2023-07-24T06:55:46;9.45;;;3.25;;
70148;SDS011;57514;52.164;5.282;2023-07-24T06:58:14;9.65;;;3.88;;
70148;SDS011;57514;52.164;5.282;2023-07-24T07:00:41;7.28;;;2.92;;
70148;SDS011;57514;52.164;5.282;2023-07-24T07:03:08;10.15;;;3.95;;
70148;SDS011;57514;52.164;5.282;2023-07-24T07:05:35;9.90;;;3.75;;
70148;SDS011;57514;52.164;5.282;2023-07-24T07:08:03;9.60;;;3.40;;
70148;SDS011;57514;52.164;5.282;2023-07-24T07:10:30;10.27;;;3.30;;
70148;SDS011;57514;52.164;5.282;2023-07-24T07:12:58;9.77;;;3.03;;
70148;SDS011;57514;52.164;5.282;2023-07-24T07:15:25;10.50;;;3.38;;
70148;SDS011;57514;52.164;5.282;2023-07-24T07:17:52;11.95;;;3.70;;
70148;SDS011;57514;52.164;5.282;2023-07-24T07:20:20;9.13;;;3.80;;
70148;SDS011;57514;52.164;5.282;2023-07-24T07:22:47;11.35;;;4.30;;
70148;SDS011;57514;52.164;5.282;2023-07-24T07:25:14;9.35;;;3.72;;
70148;SDS011;57514;52.164;5.282;2023-07-24T07:27:42;11.48;;;4.35;;
70148;SDS011;57514;52.164;5.282;2023-07-24T07:30:09;10.88;;;4.00;;
70148;SDS011;57514;52.164;5.282;2023-07-24T07:32:37;10.82;;;3.75;;
70148;SDS011;57514;52.164;5.282;2023-07-24T07:35:04;10.23;;;3.95;;
70148;SDS011;57514;52.164;5.282;2023-07-24T07:37:32;11.63;;;3.83;;
70148;SDS011;57514;52.164;5.282;2023-07-24T07:39:59;12.63;;;3.97;;
70148;SDS011;57514;52.164;5.282;2023-07-24T07:42:27;10.55;;;3.78;;
70148;SDS011;57514;52.164;5.282;2023-07-24T07:44:55;8.02;;;3.63;;
70148;SDS011;57514;52.164;5.282;2023-07-24T07:47:22;11.48;;;3.70;;
70148;SDS011;57514;52.164;5.282;2023-07-24T07:49:50;10.10;;;3.50;;
70148;SDS011;57514;52.164;5.282;2023-07-24T07:52:17;10.55;;;3.70;;
70148;SDS011;57514;52.164;5.282;2023-07-24T07:54:48;10.07;;;3.63;;
70148;SDS011;57514;52.164;5.282;2023-07-24T07:57:18;10.43;;;4.15;;
70148;SDS011;57514;52.164;5.282;2023-07-24T07:59:45;11.00;;;3.57;;
70148;SDS011;57514;52.164;5.282;2023-07-24T08:02:16;11.45;;;3.50;;
70148;SDS011;57514;52.164;5.282;2023-07-24T08:04:44;9.68;;;3.83;;
70148;SDS011;57514;52.164;5.282;2023-07-24T08:07:11;11.25;;;3.40;;
70148;SDS011;57514;52.164;5.282;2023-07-24T08:09:38;9.05;;;3.78;;
70148;SDS011;57514;52.164;5.282;2023-07-24T08:12:06;8.50;;;3.45;;
70148;SDS011;57514;52.164;5.282;2023-07-24T08:14:34;10.32;;;3.42;;
70148;SDS011;57514;52.164;5.282;2023-07-24T08:17:01;11.02;;;3.75;;
70148;SDS011;57514;52.164;5.282;2023-07-24T08:19:28;11.32;;;3.85;;
70148;SDS011;57514;52.164;5.282;2023-07-24T08:21:56;9.70;;;3.78;;
70148;SDS011;57514;52.164;5.282;2023-07-24T08:24:23;9.82;;;3.90;;
70148;SDS011;57514;52.164;5.282;2023-07-24T08:26:50;11.52;;;4.05;;
70148;SDS011;57514;52.164;5.282;2023-07-24T08:29:17;10.55;;;3.72;;
70148;SDS011;57514;52.164;5.282;2023-07-24T08:31:45;9.40;;;3.88;;
70148;SDS011;57514;52.164;5.282;2023-07-24T08:34:12;10.38;;;4.00;;
70148;SDS011;57514;52.164;5.282;2023-07-24T08:36:39;9.82;;;3.90;;
70148;SDS011;57514;52.164;5.282;2023-07-24T08:39:06;10.57;;;3.75;;
70148;SDS011;57514;52.164;5.282;2023-07-24T08:41:34;15.65;;;4.10;;
70148;SDS011;57514;52.164;5.282;2023-07-24T08:44:03;10.27;;;4.35;;
70148;SDS011;57514;52.164;5.282;2023-07-24T08:46:37;11.48;;;4.07;;
70148;SDS011;57514;52.164;5.282;2023-07-24T08:49:13;9.27;;;3.75;;
70148;SDS011;57514;52.164;5.282;2023-07-24T08:51:44;9.45;;;4.18;;
70148;SDS011;57514;52.164;5.282;2023-07-24T08:54:11;11.02;;;4.25;;
70148;SDS011;57514;52.164;5.282;2023-07-24T08:56:39;9.60;;;4.30;;
70148;SDS011;57514;52.164;5.282;2023-07-24T08:59:08;11.18;;;3.75;;
70148;SDS011;57514;52.164;5.282;2023-07-24T09:01:35;10.93;;;4.25;;
70148;SDS011;57514;52.164;5.282;2023-07-24T09:04:05;9.98;;;4.28;;
70148;SDS011;57514;52.164;5.282;2023-07-24T09:06:33;9.15;;;4.03;;
70148;SDS011;57514;52.164;5.282;2023-07-24T09:09:00;9.20;;;4.20;;
70148;SDS011;57514;52.164;5.282;2023-07-24T09:11:27;10.23;;;3.72;;
70148;SDS011;57514;52.164;5.282;2023-07-24T09:13:54;9.93;;;4.22;;
70148;SDS011;57514;52.164;5.282;2023-07-24T09:16:25;8.95;;;4.13;;
70148;SDS011;57514;52.164;5.282;2023-07-24T09:18:53;9.60;;;4.00;;
70148;SDS011;57514;52.164;5.282;2023-07-24T09:21:29;10.32;;;4.05;;
70148;SDS011;57514;52.164;5.282;2023-07-24T09:23:56;9.70;;;3.95;;
70148;SDS011;57514;52.164;5.282;2023-07-24T09:26:24;9.82;;;3.83;;
70148;SDS011;57514;52.164;5.282;2023-07-24T09:28:52;11.30;;;4.00;;
70148;SDS011;57514;52.164;5.282;2023-07-24T09:31:20;12.43;;;4.47;;
70148;SDS011;57514;52.164;5.282;2023-07-24T09:33:47;10.80;;;4.18;;
70148;SDS011;57514;52.164;5.282;2023-07-24T09:36:14;10.35;;;4.35;;
70148;SDS011;57514;52.164;5.282;2023-07-24T09:38:42;11.80;;;4.60;;
70148;SDS011;57514;52.164;5.282;2023-07-24T09:41:09;11.77;;;4.65;;
70148;SDS011;57514;52.164;5.282;2023-07-24T09:43:38;11.32;;;4.28;;
70148;SDS011;57514;52.164;5.282;2023-07-24T09:46:07;10.50;;;4.57;;
70148;SDS011;57514;52.164;5.282;2023-07-24T09:48:36;11.13;;;4.78;;
70148;SDS011;57514;52.164;5.282;2023-07-24T09:51:09;13.52;;;5.13;;
70148;SDS011;57514;52.164;5.282;2023-07-24T09:56:22;12.57;;;4.90;;
70148;SDS011;57514;52.164;5.282;2023-07-24T09:59:11;10.20;;;4.35;;
70148;SDS011;57514;52.164;5.282;2023-07-24T10:01:39;13.07;;;5.70;;
70148;SDS011;57514;52.164;5.282;2023-07-24T10:04:07;11.45;;;5.40;;
70148;SDS011;57514;52.164;5.282;2023-07-24T10:06:34;11.88;;;4.57;;
70148;SDS011;57514;52.164;5.282;2023-07-24T10:09:03;10.40;;;4.82;;
70148;SDS011;57514;52.164;5.282;2023-07-24T10:11:30;11.85;;;4.63;;
70148;SDS011;57514;52.164;5.282;2023-07-24T10:13:57;10.43;;;4.50;;
70148;SDS011;57514;52.164;5.282;2023-07-24T10:16:25;11.18;;;4.25;;
70148;SDS011;57514;52.164;5.282;2023-07-24T10:18:53;10.27;;;4.40;;
70148;SDS011;57514;52.164;5.282;2023-07-24T10:21:26;12.18;;;4.68;;
70148;SDS011;57514;52.164;5.282;2023-07-24T10:23:54;12.75;;;4.72;;
70148;SDS011;57514;52.164;5.282;2023-07-24T10:26:24;11.32;;;4.60;;
70148;SDS011;57514;52.164;5.282;2023-07-24T10:28:53;11.20;;;4.63;;
70148;SDS011;57514;52.164;5.282;2023-07-24T10:33:48;11.55;;;4.78;;
70148;SDS011;57514;52.164;5.282;2023-07-24T10:36:19;9.75;;;4.10;;
70148;SDS011;57514;52.164;5.282;2023-07-24T10:38:53;10.38;;;4.60;;
70148;SDS011;57514;52.164;5.282;2023-07-24T10:41:21;12.02;;;5.00;;
70148;SDS011;57514;52.164;5.282;2023-07-24T10:43:49;11.27;;;4.95;;
70148;SDS011;57514;52.164;5.282;2023-07-24T10:46:18;12.35;;;5.00;;
70148;SDS011;57514;52.164;5.282;2023-07-24T10:48:47;10.90;;;4.60;;
70148;SDS011;57514;52.164;5.282;2023-07-24T10:51:15;8.90;;;4.60;;
70148;SDS011;57514;52.164;5.282;2023-07-24T10:53:46;10.90;;;4.80;;
70148;SDS011;57514;52.164;5.282;2023-07-24T10:56:15;11.30;;;4.80;;
70148;SDS011;57514;52.164;5.282;2023-07-24T10:58:43;10.18;;;5.05;;
70148;SDS011;57514;52.164;5.282;2023-07-24T11:01:10;11.98;;;4.75;;
70148;SDS011;57514;52.164;5.282;2023-07-24T11:03:41;10.95;;;4.30;;
70148;SDS011;57514;52.164;5.282;2023-07-24T11:06:15;9.00;;;4.50;;
70148;SDS011;57514;52.164;5.282;2023-07-24T11:08:56;12.02;;;4.80;;
70148;SDS011;57514;52.164;5.282;2023-07-24T11:11:31;13.52;;;4.82;;
70148;SDS011;57514;52.164;5.282;2023-07-24T11:14:01;10.73;;;4.93;;
70148;SDS011;57514;52.164;5.282;2023-07-24T11:16:29;10.77;;;4.97;;
70148;SDS011;57514;52.164;5.282;2023-07-24T11:19:00;10.07;;;5.25;;
70148;SDS011;57514;52.164;5.282;2023-07-24T11:21:27;10.85;;;4.90;;
70148;SDS011;57514;52.164;5.282;2023-07-24T11:23:56;12.18;;;5.10;;
70148;SDS011;57514;52.164;5.282;2023-07-24T11:26:24;9.75;;;4.90;;
70148;SDS011;57514;52.164;5.282;2023-07-24T11:28:52;10.68;;;5.05;;
70148;SDS011;57514;52.164;5.282;2023-07-24T11:31:20;9.18;;;4.43;;
70148;SDS011;57514;52.164;5.282;2023-07-24T11:33:48;10.10;;;4.80;;
70148;SDS011;57514;52.164;5.282;2023-07-24T11:36:16;8.95;;;4.30;;
70148;SDS011;57514;52.164;5.282;2023-07-24T11:38:44;11.52;;;4.72;;
70148;SDS011;57514;52.164;5.282;2023-07-24T11:41:12;9.32;;;4.43;;
70148;SDS011;57514;52.164;5.282;2023-07-24T11:43:47;10.48;;;4.22;;
70148;SDS011;57514;52.164;5.282;2023-07-24T11:46:24;14.25;;;5.00;;
70148;SDS011;57514;52.164;5.282;2023-07-24T11:48:52;12.07;;;4.63;;
70148;SDS011;57514;52.164;5.282;2023-07-24T11:51:22;10.23;;;4.78;;
70148;SDS011;57514;52.164;5.282;2023-07-24T11:53:52;10.18;;;5.03;;
70148;SDS011;57514;52.164;5.282;2023-07-24T11:56:38;14.40;;;5.25;;
70148;SDS011;57514;52.164;5.282;2023-07-24T11:59:22;11.45;;;5.00;;
70148;SDS011;57514;52.164;5.282;2023-07-24T12:01:51;9.05;;;4.32;;
70148;SDS011;57514;52.164;5.282;2023-07-24T12:04:18;11.65;;;4.78;;
70148;SDS011;57514;52.164;5.282;2023-07-24T12:06:46;11.45;;;4.18;;
70148;SDS011;57514;52.164;5.282;2023-07-24T12:09:13;9.43;;;4.85;;
70148;SDS011;57514;52.164;5.282;2023-07-24T12:11:40;9.02;;;4.05;;
70148;SDS011;57514;52.164;5.282;2023-07-24T12:14:15;9.57;;;4.85;;
70148;SDS011;57514;52.164;5.282;2023-07-24T12:16:45;9.82;;;4.40;;
70148;SDS011;57514;52.164;5.282;2023-07-24T12:19:28;12.20;;;4.97;;
70148;SDS011;57514;52.164;5.282;2023-07-24T12:21:58;12.27;;;5.18;;
70148;SDS011;57514;52.164;5.282;2023-07-24T12:24:29;15.73;;;6.22;;
70148;SDS011;57514;52.164;5.282;2023-07-24T12:26:57;13.32;;;6.03;;
70148;SDS011;57514;52.164;5.282;2023-07-24T12:29:23;14.82;;;7.13;;
70148;SDS011;57514;52.164;5.282;2023-07-24T12:31:54;14.48;;;6.43;;
70148;SDS011;57514;52.164;5.282;2023-07-24T12:34:20;16.40;;;6.57;;
70148;SDS011;57514;52.164;5.282;2023-07-24T12:36:48;9.50;;;3.78;;
70148;SDS011;57514;52.164;5.282;2023-07-24T12:39:18;11.35;;;3.58;;
70148;SDS011;57514;52.164;5.282;2023-07-24T12:41:45;13.40;;;4.38;;
70148;SDS011;57514;52.164;5.282;2023-07-24T12:44:12;8.10;;;3.95;;
70148;SDS011;57514;52.164;5.282;2023-07-24T12:46:40;7.35;;;3.33;;
70148;SDS011;57514;52.164;5.282;2023-07-24T12:49:08;9.02;;;3.65;;
70148;SDS011;57514;52.164;5.282;2023-07-24T12:51:35;134.55;;;10.00;;
70148;SDS011;57514;52.164;5.282;2023-07-24T12:54:02;13.55;;;3.63;;
70148;SDS011;57514;52.164;5.282;2023-07-24T12:56:41;173.68;;;12.13;;
70148;SDS011;57514;52.164;5.282;2023-07-24T12:59:08;142.23;;;10.13;;
70148;SDS011;57514;52.164;5.282;2023-07-24T13:01:36;22.60;;;5.18;;
70148;SDS011;57514;52.164;5.282;2023-07-24T13:04:03;12.75;;;4.95;;
70148;SDS011;57514;52.164;5.282;2023-07-24T13:06:30;15.05;;;6.78;;
70148;SDS011;57514;52.164;5.282;2023-07-24T13:08:58;13.48;;;6.05;;
70148;SDS011;57514;52.164;5.282;2023-07-24T13:11:26;13.02;;;7.18;;
70148;SDS011;57514;52.164;5.282;2023-07-24T13:13:59;13.48;;;6.35;;
70148;SDS011;57514;52.164;5.282;2023-07-24T13:16:27;12.90;;;7.05;;
70148;SDS011;57514;52.164;5.282;2023-07-24T13:18:55;11.75;;;6.15;;
70148;SDS011;57514;52.164;5.282;2023-07-24T13:21:22;12.88;;;5.95;;
70148;SDS011;57514;52.164;5.282;2023-07-24T13:23:49;16.45;;;7.32;;
70148;SDS011;57514;52.164;5.282;2023-07-24T13:26:17;10.98;;;5.07;;
70148;SDS011;57514;52.164;5.282;2023-07-24T13:28:45;11.43;;;5.50;;
70148;SDS011;57514;52.164;5.282;2023-07-24T13:31:13;9.93;;;4.30;;
70148;SDS011;57514;52.164;5.282;2023-07-24T13:33:42;10.48;;;4.53;;
70148;SDS011;57514;52.164;5.282;2023-07-24T13:36:10;9.50;;;4.63;;
70148;SDS011;57514;52.164;5.282;2023-07-24T13:38:37;8.63;;;4.32;;
70148;SDS011;57514;52.164;5.282;2023-07-24T13:41:04;11.95;;;4.47;;
70148;SDS011;57514;52.164;5.282;2023-07-24T13:43:32;7.32;;;3.60;;
70148;SDS011;57514;52.164;5.282;2023-07-24T13:46:00;9.30;;;3.90;;
70148;SDS011;57514;52.164;5.282;2023-07-24T13:48:29;13.48;;;4.35;;
70148;SDS011;57514;52.164;5.282;2023-07-24T13:50:56;8.52;;;3.42;;
70148;SDS011;57514;52.164;5.282;2023-07-24T13:53:24;8.45;;;3.60;;
70148;SDS011;57514;52.164;5.282;2023-07-24T13:55:51;6.18;;;3.20;;
70148;SDS011;57514;52.164;5.282;2023-07-24T13:58:18;6.78;;;2.92;;
70148;SDS011;57514;52.164;5.282;2023-07-24T14:00:45;9.38;;;3.20;;
70148;SDS011;57514;52.164;5.282;2023-07-24T14:03:12;7.65;;;3.25;;
70148;SDS011;57514;52.164;5.282;2023-07-24T14:05:39;7.45;;;2.65;;
70148;SDS011;57514;52.164;5.282;2023-07-24T14:08:07;6.65;;;2.85;;
70148;SDS011;57514;52.164;5.282;2023-07-24T14:10:34;6.38;;;3.15;;
70148;SDS011;57514;52.164;5.282;2023-07-24T14:13:02;7.32;;;2.78;;
70148;SDS011;57514;52.164;5.282;2023-07-24T14:15:30;7.35;;;2.50;;
70148;SDS011;57514;52.164;5.282;2023-07-24T14:17:57;7.85;;;2.53;;
70148;SDS011;57514;52.164;5.282;2023-07-24T14:20:24;7.05;;;2.40;;
70148;SDS011;57514;52.164;5.282;2023-07-24T14:22:51;6.18;;;3.13;;
70148;SDS011;57514;52.164;5.282;2023-07-24T14:25:18;7.63;;;3.13;;
70148;SDS011;57514;52.164;5.282;2023-07-24T14:27:45;5.45;;;2.60;;
70148;SDS011;57514;52.164;5.282;2023-07-24T14:30:12;5.57;;;2.50;;
70148;SDS011;57514;52.164;5.282;2023-07-24T14:35:09;6.60;;;2.90;;
70148;SDS011;57514;52.164;5.282;2023-07-24T14:37:37;7.40;;;3.10;;
70148;SDS011;57514;52.164;5.282;2023-07-24T14:40:05;8.15;;;2.90;;
70148;SDS011;57514;52.164;5.282;2023-07-24T14:42:32;7.18;;;2.97;;
70148;SDS011;57514;52.164;5.282;2023-07-24T14:44:59;9.05;;;3.05;;
70148;SDS011;57514;52.164;5.282;2023-07-24T14:47:29;6.68;;;2.72;;
70148;SDS011;57514;52.164;5.282;2023-07-24T14:49:56;5.30;;;2.80;;
70148;SDS011;57514;52.164;5.282;2023-07-24T14:52:24;7.75;;;2.55;;
70148;SDS011;57514;52.164;5.282;2023-07-24T14:54:51;6.50;;;2.55;;
70148;SDS011;57514;52.164;5.282;2023-07-24T14:57:18;6.47;;;2.70;;
70148;SDS011;57514;52.164;5.282;2023-07-24T15:00:57;6.68;;;2.28;;
70148;SDS011;57514;52.164;5.282;2023-07-24T15:03:24;5.72;;;2.30;;
70148;SDS011;57514;52.164;5.282;2023-07-24T15:05:52;7.78;;;2.00;;
70148;SDS011;57514;52.164;5.282;2023-07-24T15:08:19;5.50;;;1.90;;
70148;SDS011;57514;52.164;5.282;2023-07-24T15:10:47;7.40;;;2.40;;
70148;SDS011;57514;52.164;5.282;2023-07-24T15:13:14;4.97;;;1.98;;
70148;SDS011;57514;52.164;5.282;2023-07-24T15:15:41;5.60;;;2.00;;